Time;durP1;ratioP1;P1;durP2;ratioP2;P2;SDS_P1;SDS_P2;PMS_P1;PMS_P2;Temp;Humidity;BMP_temperature;BMP_pressure;BME280_temperature;BME280_humidity;BME280_pressure;Samples;Min_cycle;Max_cycle;Signal;HPM_P1;HPM_P2
2021/12/05 00:23:44;;;;;;;2.17;1.57;;;;;;;;;;5030801;28;20437;-70
2021/12/05 00:26:16;;;;;;;2.97;1.73;;;;;;;;;;5030443;28;20489;-71
2021/12/05 00:31:50;;;;;;;2.30;1.70;;;;;;;;;;5092874;28;20435;-71
2021/12/05 00:34:39;;;;;;;2.07;1.87;;;;;;;;;;5092966;28;20439;-71
2021/12/05 00:48:27;;;;;;;2.20;2.00;;;;;;;;;;5096255;28;20518;-72
2021/12/05 00:51:42;;;;;;;3.97;2.43;;;;;;;;;;5096737;28;20813;-72
2021/12/05 01:00:01;;;;;;;2.00;1.70;;;;;;;;;;5039254;28;20434;-71
2021/12/05 01:02:43;;;;;;;1.70;1.50;;;;;;;;;;5096325;28;20446;-71
2021/12/05 01:05:29;;;;;;;3.17;1.60;;;;;;;;;;5096040;28;20477;-72
2021/12/05 01:08:25;;;;;;;1.60;1.23;;;;;;;;;;5095953;28;20511;-71
2021/12/05 01:11:10;;;;;;;1.77;1.33;;;;;;;;;;5096189;28;20816;-72
2021/12/05 01:13:43;;;;;;;1.60;1.20;;;;;;;;;;5096463;28;20462;-71
2021/12/05 01:16:12;;;;;;;1.80;1.40;;;;;;;;;;5095893;28;20493;-71
2021/12/05 01:18:40;;;;;;;1.90;1.50;;;;;;;;;;5095903;28;20446;-71
2021/12/05 01:21:11;;;;;;;1.30;1.00;;;;;;;;;;5095849;28;20458;-71
2021/12/05 01:23:51;;;;;;;1.30;1.10;;;;;;;;;;5095834;28;20455;-71
2021/12/05 01:26:21;;;;;;;2.83;1.30;;;;;;;;;;5095729;28;20490;-71
2021/12/05 01:31:59;;;;;;;1.43;1.00;;;;;;;;;;5033384;28;20442;-72
2021/12/05 01:34:33;;;;;;;2.80;1.50;;;;;;;;;;5033493;28;20495;-71
2021/12/05 01:37:19;;;;;;;1.60;1.50;;;;;;;;;;5068133;28;20515;-71
2021/12/05 01:39:59;;;;;;;3.20;1.33;;;;;;;;;;5095627;28;20486;-71
2021/12/05 01:43:08;;;;;;;1.80;1.30;;;;;;;;;;5095782;28;20450;-71
2021/12/05 01:46:17;;;;;;;4.27;1.60;;;;;;;;;;5095422;28;21082;-71
2021/12/05 01:57:40;;;;;;;1.87;1.27;;;;;;;;;;5094862;28;20423;-71
2021/12/05 02:00:47;;;;;;;2.60;1.93;;;;;;;;;;5095086;28;21016;-70
2021/12/05 02:12:01;;;;;;;2.57;1.93;;;;;;;;;;5089231;28;20431;-71
2021/12/05 02:33:52;;;;;;;4.90;3.13;;;;;;;;;;5094612;28;20510;-71
2021/12/05 02:36:31;;;;;;;2.80;2.13;;;;;;;;;;5094073;28;20459;-71
2021/12/05 02:39:14;;;;;;;4.90;2.73;;;;;;;;;;5093987;28;20455;-70
2021/12/05 02:41:43;;;;;;;2.80;2.60;;;;;;;;;;5094198;28;20461;-70
2021/12/05 02:44:15;;;;;;;3.10;2.70;;;;;;;;;;5094105;28;20811;-70
2021/12/05 02:46:45;;;;;;;3.13;2.83;;;;;;;;;;5093793;28;20490;-72
2021/12/05 02:49:14;;;;;;;3.60;2.50;;;;;;;;;;5094070;28;20458;-70
2021/12/05 02:51:42;;;;;;;3.87;2.50;;;;;;;;;;5093950;28;20958;-70
2021/12/05 02:54:15;;;;;;;2.43;2.20;;;;;;;;;;5093880;28;20488;-71
2021/12/05 02:56:46;;;;;;;4.23;2.00;;;;;;;;;;5093723;28;20443;-72
2021/12/05 02:59:22;;;;;;;4.23;2.30;;;;;;;;;;5092877;28;20455;-71
2021/12/05 03:01:54;;;;;;;3.07;2.20;;;;;;;;;;5093964;28;20831;-71
2021/12/05 03:04:23;;;;;;;2.70;2.43;;;;;;;;;;5093862;28;20515;-70
2021/12/05 03:06:52;;;;;;;3.60;1.93;;;;;;;;;;5093468;28;20573;-71
2021/12/05 03:09:22;;;;;;;3.23;2.23;;;;;;;;;;5093746;28;20461;-71
2021/12/05 03:11:51;;;;;;;4.20;1.77;;;;;;;;;;5093590;28;20451;-71
2021/12/05 03:14:18;;;;;;;3.47;1.67;;;;;;;;;;5093682;28;20459;-70
2021/12/05 03:16:45;;;;;;;2.60;1.47;;;;;;;;;;5093505;28;20442;-71
2021/12/05 03:19:13;;;;;;;2.37;1.63;;;;;;;;;;5093478;28;20458;-71
2021/12/05 03:21:40;;;;;;;2.07;1.87;;;;;;;;;;5093376;28;20450;-70
2021/12/05 03:24:09;;;;;;;6.53;1.60;;;;;;;;;;5093416;28;20451;-71
2021/12/05 03:26:39;;;;;;;2.40;1.80;;;;;;;;;;5093281;28;20483;-71
2021/12/05 03:29:07;;;;;;;3.30;1.77;;;;;;;;;;5093224;28;20458;-70
2021/12/05 03:31:35;;;;;;;4.23;2.23;;;;;;;;;;5093647;28;20816;-70
2021/12/05 03:34:03;;;;;;;4.60;1.80;;;;;;;;;;5093242;28;20962;-70
2021/12/05 03:36:31;;;;;;;2.50;1.30;;;;;;;;;;5093216;28;20810;-70
2021/12/05 03:38:58;;;;;;;9.30;1.67;;;;;;;;;;5093116;28;20447;-72
2021/12/05 03:41:25;;;;;;;1.77;1.40;;;;;;;;;;5093431;28;20450;-71
2021/12/05 03:43:55;;;;;;;3.53;1.40;;;;;;;;;;5093213;28;20450;-71
2021/12/05 03:46:23;;;;;;;2.23;1.10;;;;;;;;;;5093084;28;20482;-70
2021/12/05 03:48:51;;;;;;;2.53;1.40;;;;;;;;;;5093099;28;20466;-71
2021/12/05 03:51:20;;;;;;;4.90;1.77;;;;;;;;;;5093508;28;20482;-70
2021/12/05 03:53:47;;;;;;;2.57;1.60;;;;;;;;;;5093245;28;20473;-72
2021/12/05 03:56:16;;;;;;;2.60;1.60;;;;;;;;;;5093305;28;20443;-70
2021/12/05 03:58:43;;;;;;;2.20;1.60;;;;;;;;;;5093015;28;20450;-71
2021/12/05 04:01:13;;;;;;;1.93;1.50;;;;;;;;;;5092961;28;20447;-71
2021/12/05 04:03:40;;;;;;;3.87;2.13;;;;;;;;;;5093117;28;20822;-71
2021/12/05 04:06:08;;;;;;;3.60;1.50;;;;;;;;;;5092918;28;20486;-71
2021/12/05 04:08:35;;;;;;;1.73;1.40;;;;;;;;;;5092903;28;20457;-70
2021/12/05 04:11:04;;;;;;;4.17;1.50;;;;;;;;;;5095662;28;20446;-70
2021/12/05 04:13:32;;;;;;;3.63;1.87;;;;;;;;;;5097119;28;20941;-70
2021/12/05 04:16:01;;;;;;;4.10;1.80;;;;;;;;;;5097076;28;20510;-70
2021/12/05 04:18:29;;;;;;;2.43;1.63;;;;;;;;;;5096954;28;20450;-70
2021/12/05 04:20:56;;;;;;;5.17;1.80;;;;;;;;;;5096987;28;20962;-71
2021/12/05 04:23:23;;;;;;;9.17;1.73;;;;;;;;;;5097104;28;20450;-70
2021/12/05 04:25:52;;;;;;;3.20;1.73;;;;;;;;;;5097155;28;20859;-71
2021/12/05 04:28:20;;;;;;;3.47;1.63;;;;;;;;;;5096791;28;20815;-70
2021/12/05 04:30:47;;;;;;;4.23;2.33;;;;;;;;;;5096780;28;20446;-72
2021/12/05 04:33:14;;;;;;;5.83;1.83;;;;;;;;;;5096607;28;20458;-71
2021/12/05 04:35:43;;;;;;;3.10;2.03;;;;;;;;;;5096682;28;20462;-70
2021/12/05 04:38:10;;;;;;;3.30;2.27;;;;;;;;;;5096467;28;20450;-70
2021/12/05 04:40:38;;;;;;;2.43;1.80;;;;;;;;;;5096660;28;20951;-70
2021/12/05 04:43:05;;;;;;;3.63;2.07;;;;;;;;;;5096451;28;20450;-71
2021/12/05 04:45:34;;;;;;;3.23;1.63;;;;;;;;;;5096421;28;20499;-70
2021/12/05 04:48:02;;;;;;;6.67;2.00;;;;;;;;;;5096211;28;20482;-70
2021/12/05 04:50:29;;;;;;;4.97;2.77;;;;;;;;;;5096449;28;20447;-70
2021/12/05 04:52:58;;;;;;;5.33;2.47;;;;;;;;;;5096394;28;20442;-71
2021/12/05 04:55:26;;;;;;;3.63;2.50;;;;;;;;;;5096250;28;20455;-71
2021/12/05 04:57:53;;;;;;;3.20;2.10;;;;;;;;;;5096240;28;20453;-71
2021/12/05 05:00:22;;;;;;;4.63;2.70;;;;;;;;;;5096126;28;20450;-71
2021/12/05 05:02:49;;;;;;;6.13;2.63;;;;;;;;;;5096267;28;20818;-71
2021/12/05 05:05:17;;;;;;;8.10;4.07;;;;;;;;;;5096429;28;20458;-70
2021/12/05 05:07:44;;;;;;;2.13;1.73;;;;;;;;;;5095883;28;20486;-70
2021/12/05 05:10:15;;;;;;;2.53;1.70;;;;;;;;;;5095977;28;20450;-71
2021/12/05 05:12:42;;;;;;;4.17;1.57;;;;;;;;;;5096193;28;20442;-71
2021/12/05 05:15:10;;;;;;;3.40;1.97;;;;;;;;;;5095902;28;20455;-71
2021/12/05 05:17:38;;;;;;;5.43;1.80;;;;;;;;;;5095709;28;20443;-71
2021/12/05 05:20:15;;;;;;;2.60;1.90;;;;;;;;;;5095786;28;20507;-71
2021/12/05 05:22:48;;;;;;;4.47;2.40;;;;;;;;;;5095028;28;20457;-72
2021/12/05 05:39:01;;;;;;;4.40;2.07;;;;;;;;;;5095722;28;20423;-71
2021/12/05 05:39:30;;;;;;;2.50;1.60;;;;;;;;;;5095522;28;20472;-71
2021/12/05 05:44:56;;;;;;;6.37;3.17;;;;;;;;;;5095348;28;20546;-70
2021/12/05 05:47:31;;;;;;;4.20;2.40;;;;;;;;;;5095149;28;20489;-71
2021/12/05 05:49:58;;;;;;;4.00;2.00;;;;;;;;;;5095350;28;20544;-71
2021/12/05 05:52:26;;;;;;;2.40;1.93;;;;;;;;;;5095348;28;20458;-71
2021/12/05 05:54:56;;;;;;;3.00;1.90;;;;;;;;;;5095273;28;20451;-71
2021/12/05 05:57:27;;;;;;;2.27;1.70;;;;;;;;;;5095129;28;20579;-70
2021/12/05 06:00:02;;;;;;;5.40;2.80;;;;;;;;;;5095015;28;20450;-70
2021/12/05 06:05:14;;;;;;;7.00;3.20;;;;;;;;;;5095167;28;20415;-71
2021/12/05 06:07:44;;;;;;;5.53;2.40;;;;;;;;;;5094663;28;20925;-70
2021/12/05 06:10:12;;;;;;;3.60;2.23;;;;;;;;;;5094711;28;20455;-71
2021/12/05 06:12:41;;;;;;;3.33;2.17;;;;;;;;;;5094977;28;20802;-71
2021/12/05 06:15:10;;;;;;;3.80;1.30;;;;;;;;;;5094663;28;20484;-71
2021/12/05 06:17:38;;;;;;;4.67;1.83;;;;;;;;;;5094822;28;20869;-71
2021/12/05 06:20:07;;;;;;;5.30;1.67;;;;;;;;;;5094729;28;20451;-71
2021/12/05 06:22:34;;;;;;;2.43;1.70;;;;;;;;;;5094677;28;20454;-70
2021/12/05 06:25:02;;;;;;;4.97;2.93;;;;;;;;;;5094449;28;20443;-71
2021/12/05 06:27:29;;;;;;;3.70;2.40;;;;;;;;;;5094560;28;20819;-71
2021/12/05 06:30:06;;;;;;;3.80;1.70;;;;;;;;;;5094349;28;20798;-71
2021/12/05 06:38:11;;;;;;;5.10;3.83;;;;;;;;;;5093891;28;20480;-70
2021/12/05 06:40:58;;;;;;;7.47;3.47;;;;;;;;;;5094260;28;20459;-70
2021/12/05 06:46:16;;;;;;;10.50;4.80;;;;;;;;;;5094183;28;20481;-71
2021/12/05 06:48:43;;;;;;;3.37;2.30;;;;;;;;;;5094094;28;20434;-71
2021/12/05 06:51:11;;;;;;;3.83;2.10;;;;;;;;;;5093974;28;20450;-70
2021/12/05 06:53:38;;;;;;;3.87;2.93;;;;;;;;;;5094135;28;20453;-71
2021/12/05 06:56:06;;;;;;;6.13;4.07;;;;;;;;;;5093971;28;20817;-70
2021/12/05 06:58:33;;;;;;;8.77;3.27;;;;;;;;;;5093691;28;20462;-71
2021/12/05 07:01:01;;;;;;;12.80;4.20;;;;;;;;;;5093769;28;21042;-72
2021/12/05 07:03:29;;;;;;;4.03;2.53;;;;;;;;;;5093925;28;20454;-71
2021/12/05 07:05:59;;;;;;;3.33;2.40;;;;;;;;;;5093851;28;20450;-71
2021/12/05 07:08:31;;;;;;;6.10;3.70;;;;;;;;;;5093754;28;20486;-71
2021/12/05 07:11:03;;;;;;;8.10;4.13;;;;;;;;;;5093754;28;20633;-71
2021/12/05 07:13:57;;;;;;;3.70;2.73;;;;;;;;;;5093711;28;20461;-71
2021/12/05 07:16:28;;;;;;;3.67;2.20;;;;;;;;;;5093761;28;20451;-71
2021/12/05 07:19:14;;;;;;;4.00;2.60;;;;;;;;;;5093396;28;20935;-72
2021/12/05 07:21:47;;;;;;;10.60;2.83;;;;;;;;;;5093755;28;20458;-71
2021/12/05 07:24:27;;;;;;;6.23;3.60;;;;;;;;;;5093710;28;21428;-71
2021/12/05 07:40:18;;;;;;;3.67;3.03;;;;;;;;;;5093296;28;20482;-71
2021/12/05 07:40:55;;;;;;;8.57;4.80;;;;;;;;;;5093150;28;20430;-72
2021/12/05 07:43:22;;;;;;;11.10;7.03;;;;;;;;;;5093457;28;20537;-71
2021/12/05 07:45:54;;;;;;;12.70;6.17;;;;;;;;;;5092853;28;20442;-71
2021/12/05 07:48:26;;;;;;;5.90;4.00;;;;;;;;;;5093036;28;20577;-71
2021/12/05 07:51:04;;;;;;;7.00;5.07;;;;;;;;;;5093160;28;20454;-72
2021/12/05 07:53:38;;;;;;;6.20;4.30;;;;;;;;;;5093341;28;20809;-71
2021/12/05 07:56:12;;;;;;;5.53;4.27;;;;;;;;;;5093239;28;20455;-71
2021/12/05 07:59:07;;;;;;;6.77;4.40;;;;;;;;;;5091993;28;20956;-72
2021/12/05 08:15:23;;;;;;;11.23;8.60;;;;;;;;;;5092815;28;20522;-72
2021/12/05 08:17:52;;;;;;;19.20;12.07;;;;;;;;;;5092563;28;20455;-71
2021/12/05 08:20:21;;;;;;;21.70;16.80;;;;;;;;;;5092768;28;20450;-71
2021/12/05 08:22:50;;;;;;;20.83;13.73;;;;;;;;;;5092587;28;20451;-72
2021/12/05 08:25:20;;;;;;;13.07;9.00;;;;;;;;;;5092611;28;20450;-71
2021/12/05 08:27:51;;;;;;;16.83;10.57;;;;;;;;;;5092424;28;20495;-72
2021/12/05 08:30:26;;;;;;;18.33;10.70;;;;;;;;;;5092829;28;20469;-71
2021/12/05 09:23:32;;;;;;;6.90;5.30;;;;;;;;;;5089844;28;20437;-71
2021/12/05 09:38:31;;;;;;;18.23;8.83;;;;;;;;;;5089513;28;20506;-71
2021/12/05 10:07:28;;;;;;;5.80;3.50;;;;;;;;;;5095695;28;20414;-70
2021/12/05 10:10:10;;;;;;;7.97;3.90;;;;;;;;;;5095749;28;20458;-71
2021/12/05 10:13:05;;;;;;;4.13;3.13;;;;;;;;;;5095794;28;20542;-70
2021/12/05 10:15:44;;;;;;;4.53;2.90;;;;;;;;;;5089579;28;20544;-71
2021/12/05 10:18:44;;;;;;;9.20;2.83;;;;;;;;;;5091133;28;20577;-71
2021/12/05 10:27:09;;;;;;;10.73;6.70;;;;;;;;;;5093844;28;20477;-71
2021/12/05 10:35:37;;;;;;;3.90;2.97;;;;;;;;;;5093494;28;20449;-71
2021/12/05 10:38:08;;;;;;;7.83;4.00;;;;;;;;;;5092968;28;20524;-71
2021/12/05 10:40:40;;;;;;;5.23;4.07;;;;;;;;;;5093496;28;20469;-70
2021/12/05 10:43:12;;;;;;;7.20;3.80;;;;;;;;;;5093343;28;20573;-71
2021/12/05 10:45:41;;;;;;;5.37;4.40;;;;;;;;;;5093445;28;20466;-71
2021/12/05 10:48:10;;;;;;;10.63;5.67;;;;;;;;;;5093045;28;20462;-71
2021/12/05 10:50:41;;;;;;;10.60;5.60;;;;;;;;;;5093517;28;20558;-71
2021/12/05 10:53:18;;;;;;;12.00;5.90;;;;;;;;;;5092919;28;20466;-71
2021/12/05 10:55:45;;;;;;;8.17;4.87;;;;;;;;;;5093298;28;20473;-70
2021/12/05 10:58:12;;;;;;;9.30;6.00;;;;;;;;;;5092732;28;21018;-71
2021/12/05 11:00:39;;;;;;;10.37;6.20;;;;;;;;;;5092122;28;20475;-71
2021/12/05 11:03:14;;;;;;;14.40;6.00;;;;;;;;;;5077093;28;20479;-71
2021/12/05 11:05:43;;;;;;;11.37;7.13;;;;;;;;;;5076444;28;20477;-71
2021/12/05 11:08:25;;;;;;;12.60;7.27;;;;;;;;;;5087834;28;20466;-71
2021/12/05 11:10:53;;;;;;;13.77;6.63;;;;;;;;;;5072526;28;20494;-70
2021/12/05 11:13:29;;;;;;;10.17;6.07;;;;;;;;;;5072713;28;20471;-70
2021/12/05 11:15:56;;;;;;;19.83;6.70;;;;;;;;;;5072639;28;20995;-71
2021/12/05 11:18:38;;;;;;;6.43;3.77;;;;;;;;;;5072309;28;20996;-71
2021/12/05 11:21:20;;;;;;;8.63;5.10;;;;;;;;;;5072233;28;20471;-71
2021/12/05 11:24:04;;;;;;;7.03;5.30;;;;;;;;;;5071909;28;20479;-71
2021/12/05 11:26:31;;;;;;;11.33;5.80;;;;;;;;;;5072519;28;20471;-71
2021/12/05 11:28:58;;;;;;;9.83;5.63;;;;;;;;;;5072387;28;20460;-70
2021/12/05 11:31:26;;;;;;;6.83;5.03;;;;;;;;;;5073949;28;20454;-70
2021/12/05 11:33:54;;;;;;;5.90;5.10;;;;;;;;;;5073228;28;20949;-71
2021/12/05 11:36:24;;;;;;;6.30;4.27;;;;;;;;;;5073781;28;20456;-70
2021/12/05 11:38:53;;;;;;;7.87;4.60;;;;;;;;;;5073441;28;20487;-71
2021/12/05 11:41:22;;;;;;;6.30;5.10;;;;;;;;;;5073622;28;20455;-71
2021/12/05 11:43:51;;;;;;;7.50;4.60;;;;;;;;;;5073598;28;20461;-71
2021/12/05 11:46:19;;;;;;;7.80;5.00;;;;;;;;;;5073687;28;20547;-71
2021/12/05 11:48:49;;;;;;;9.70;5.10;;;;;;;;;;5073416;28;20469;-71
2021/12/05 11:51:20;;;;;;;14.70;5.43;;;;;;;;;;5073874;28;20944;-70
2021/12/05 11:53:49;;;;;;;7.60;3.90;;;;;;;;;;5073486;28;20451;-71
2021/12/05 11:56:21;;;;;;;5.87;4.40;;;;;;;;;;5073514;28;20526;-70
2021/12/05 11:59:04;;;;;;;6.23;3.73;;;;;;;;;;5073020;28;20487;-71
2021/12/05 12:01:35;;;;;;;9.63;4.70;;;;;;;;;;5073462;28;20447;-70
2021/12/05 12:04:02;;;;;;;10.10;5.13;;;;;;;;;;5073340;28;20440;-71
2021/12/05 12:06:29;;;;;;;9.27;4.63;;;;;;;;;;5073330;28;20960;-70
2021/12/05 12:08:56;;;;;;;5.40;4.07;;;;;;;;;;5073033;28;20458;-71
2021/12/05 12:11:25;;;;;;;6.80;4.10;;;;;;;;;;5089043;28;20540;-71
2021/12/05 12:13:54;;;;;;;11.07;7.83;;;;;;;;;;5091946;28;20479;-71
2021/12/05 12:16:21;;;;;;;10.70;6.47;;;;;;;;;;5091847;28;20510;-71
2021/12/05 12:18:50;;;;;;;6.10;5.10;;;;;;;;;;5091621;28;21018;-71
2021/12/05 12:21:19;;;;;;;10.50;5.43;;;;;;;;;;5091880;28;20510;-71
2021/12/05 12:23:47;;;;;;;4.70;3.47;;;;;;;;;;5091937;28;20474;-71
2021/12/05 12:26:14;;;;;;;6.23;4.80;;;;;;;;;;5091775;28;21024;-71
2021/12/05 12:28:43;;;;;;;6.93;4.07;;;;;;;;;;5092239;28;20968;-71
2021/12/05 12:31:12;;;;;;;7.10;4.33;;;;;;;;;;5091392;28;20998;-71
2021/12/05 12:33:41;;;;;;;6.57;3.83;;;;;;;;;;5091995;28;20462;-71
2021/12/05 12:36:09;;;;;;;4.13;2.00;;;;;;;;;;5091985;28;20469;-72
2021/12/05 12:38:37;;;;;;;7.70;3.20;;;;;;;;;;5091448;28;20509;-72
2021/12/05 12:41:06;;;;;;;12.97;8.40;;;;;;;;;;5091827;28;20473;-70
2021/12/05 12:43:38;;;;;;;20.93;10.80;;;;;;;;;;5093018;28;20474;-70
2021/12/05 12:46:17;;;;;;;19.03;7.17;;;;;;;;;;5093304;28;20475;-70
2021/12/05 12:48:44;;;;;;;5.80;4.10;;;;;;;;;;5094145;28;20564;-70
2021/12/05 12:51:25;;;;;;;4.33;3.30;;;;;;;;;;5094852;28;20470;-70
2021/12/05 12:53:55;;;;;;;10.00;4.40;;;;;;;;;;5095297;28;20470;-70
2021/12/05 12:56:23;;;;;;;11.30;5.10;;;;;;;;;;5094046;28;20454;-69
2021/12/05 12:58:54;;;;;;;8.07;4.03;;;;;;;;;;5094419;28;20922;-70
2021/12/05 13:02:01;;;;;;;5.93;3.60;;;;;;;;;;5094519;28;20483;-70
2021/12/05 13:04:56;;;;;;;4.70;3.20;;;;;;;;;;5094716;28;20455;-70
2021/12/05 13:10:23;;;;;;;13.07;5.60;;;;;;;;;;5093715;28;20507;-70
2021/12/05 13:12:52;;;;;;;10.80;5.23;;;;;;;;;;5093745;28;20466;-70
2021/12/05 13:15:22;;;;;;;5.87;3.70;;;;;;;;;;5093580;28;20454;-70
2021/12/05 13:17:53;;;;;;;8.63;5.17;;;;;;;;;;5093264;28;21013;-70
2021/12/05 13:20:22;;;;;;;14.03;5.93;;;;;;;;;;5093324;28;20453;-70
2021/12/05 13:23:06;;;;;;;10.50;4.80;;;;;;;;;;5093133;28;20946;-70
2021/12/05 13:25:35;;;;;;;10.10;6.07;;;;;;;;;;5097135;28;20453;-70
2021/12/05 13:28:17;;;;;;;8.80;5.90;;;;;;;;;;5096647;28;20952;-70
2021/12/05 13:30:45;;;;;;;7.47;5.03;;;;;;;;;;5097104;28;20465;-70
2021/12/05 13:33:18;;;;;;;5.77;5.10;;;;;;;;;;5097217;28;20458;-70
2021/12/05 13:35:45;;;;;;;7.27;5.57;;;;;;;;;;5097244;28;20818;-70
2021/12/05 13:38:32;;;;;;;7.80;6.33;;;;;;;;;;5096949;28;20850;-70
2021/12/05 13:41:10;;;;;;;8.47;6.37;;;;;;;;;;5096959;28;20486;-71
2021/12/05 13:43:38;;;;;;;12.80;5.77;;;;;;;;;;5096884;28;20452;-70
2021/12/05 13:46:20;;;;;;;13.63;6.23;;;;;;;;;;5096726;28;20948;-70
2021/12/05 13:48:49;;;;;;;11.03;6.60;;;;;;;;;;5096345;28;20450;-70
2021/12/05 13:51:23;;;;;;;12.00;6.90;;;;;;;;;;5097255;28;20454;-70
2021/12/05 13:53:52;;;;;;;11.10;7.10;;;;;;;;;;5096511;28;20454;-71
2021/12/05 13:56:24;;;;;;;7.27;6.13;;;;;;;;;;5096916;28;20481;-70
2021/12/05 13:58:53;;;;;;;10.17;6.63;;;;;;;;;;5096354;28;20486;-70
2021/12/05 14:01:22;;;;;;;7.90;5.60;;;;;;;;;;5096374;28;20857;-70
2021/12/05 14:04:10;;;;;;;12.60;7.23;;;;;;;;;;5096410;28;20446;-70
2021/12/05 14:06:43;;;;;;;9.37;7.37;;;;;;;;;;5096178;28;20450;-71
2021/12/05 14:09:12;;;;;;;12.93;6.97;;;;;;;;;;5092960;28;20469;-71
2021/12/05 14:11:49;;;;;;;8.10;5.70;;;;;;;;;;5094738;28;20462;-72
2021/12/05 14:14:16;;;;;;;17.70;6.73;;;;;;;;;;5094579;28;20474;-70
2021/12/05 14:16:44;;;;;;;9.33;7.37;;;;;;;;;;5094213;28;20837;-71
2021/12/05 14:19:13;;;;;;;9.47;6.67;;;;;;;;;;5094513;28;20494;-71
2021/12/05 14:21:43;;;;;;;10.13;7.23;;;;;;;;;;5094583;28;20893;-70
2021/12/05 14:24:10;;;;;;;7.80;6.63;;;;;;;;;;5094096;28;20827;-71
2021/12/05 14:26:40;;;;;;;12.23;7.97;;;;;;;;;;5094407;28;20815;-70
2021/12/05 14:29:09;;;;;;;9.97;6.73;;;;;;;;;;5094120;28;20485;-70
2021/12/05 14:31:38;;;;;;;6.93;6.20;;;;;;;;;;5094110;28;20471;-70
2021/12/05 14:34:09;;;;;;;17.63;10.10;;;;;;;;;;5093992;28;20473;-70
2021/12/05 14:36:38;;;;;;;10.87;7.53;;;;;;;;;;5093895;28;20565;-71
2021/12/05 14:39:08;;;;;;;17.67;9.37;;;;;;;;;;5093663;28;20497;-72
2021/12/05 14:41:36;;;;;;;10.30;7.17;;;;;;;;;;5094111;28;20466;-71
2021/12/05 14:44:04;;;;;;;12.17;8.17;;;;;;;;;;5093913;28;20848;-70
2021/12/05 14:46:31;;;;;;;16.50;8.77;;;;;;;;;;5093400;28;20473;-70
2021/12/05 14:49:01;;;;;;;7.47;5.93;;;;;;;;;;5093510;28;20466;-70
2021/12/05 14:51:35;;;;;;;7.50;5.80;;;;;;;;;;5095315;28;20459;-70
2021/12/05 14:54:04;;;;;;;6.17;5.10;;;;;;;;;;5094800;28;20462;-70
2021/12/05 14:56:33;;;;;;;7.80;5.43;;;;;;;;;;5095376;28;20455;-70
2021/12/05 14:59:07;;;;;;;10.20;6.60;;;;;;;;;;5095359;28;21017;-70
2021/12/05 15:01:35;;;;;;;8.67;7.00;;;;;;;;;;5095331;28;20450;-70
2021/12/05 15:04:02;;;;;;;16.97;7.30;;;;;;;;;;5095648;28;20450;-70
2021/12/05 15:06:35;;;;;;;7.93;6.50;;;;;;;;;;5095507;28;20463;-70
2021/12/05 15:09:04;;;;;;;10.10;6.47;;;;;;;;;;5095249;28;20919;-70
2021/12/05 15:11:32;;;;;;;9.03;6.13;;;;;;;;;;5095232;28;20447;-69
2021/12/05 15:14:04;;;;;;;8.97;6.40;;;;;;;;;;5095083;28;20819;-69
2021/12/05 15:16:31;;;;;;;10.60;7.40;;;;;;;;;;5095117;28;20519;-69
2021/12/05 15:18:59;;;;;;;12.10;8.90;;;;;;;;;;5094101;28;20458;-69
2021/12/05 15:21:27;;;;;;;13.63;8.13;;;;;;;;;;5095496;28;20461;-70
2021/12/05 15:23:55;;;;;;;16.80;8.53;;;;;;;;;;5095591;28;20512;-70
2021/12/05 15:26:24;;;;;;;7.77;5.57;;;;;;;;;;5095105;28;20463;-70
2021/12/05 15:29:00;;;;;;;9.90;5.87;;;;;;;;;;5094532;28;20535;-69
2021/12/05 15:31:33;;;;;;;11.47;7.20;;;;;;;;;;5095020;28;20454;-69
2021/12/05 15:34:00;;;;;;;13.40;7.70;;;;;;;;;;5094922;28;20454;-69
2021/12/05 15:36:31;;;;;;;11.50;7.90;;;;;;;;;;5094217;28;20450;-70
2021/12/05 15:38:58;;;;;;;9.07;7.30;;;;;;;;;;5095310;28;20487;-70
2021/12/05 15:41:29;;;;;;;10.60;7.83;;;;;;;;;;5095418;28;20952;-69
2021/12/05 15:43:57;;;;;;;13.80;8.60;;;;;;;;;;5095346;28;20466;-70
2021/12/05 15:46:28;;;;;;;15.10;8.90;;;;;;;;;;5094284;28;20458;-70
2021/12/05 15:48:57;;;;;;;12.07;7.23;;;;;;;;;;5094164;28;20454;-70
2021/12/05 15:51:24;;;;;;;9.83;6.20;;;;;;;;;;5094609;28;20455;-70
2021/12/05 15:53:51;;;;;;;14.53;8.50;;;;;;;;;;5094378;28;20463;-71
2021/12/05 15:56:22;;;;;;;13.87;8.03;;;;;;;;;;5094211;28;20453;-71
2021/12/05 15:58:57;;;;;;;20.00;9.33;;;;;;;;;;5094234;28;20482;-71
2021/12/05 16:01:26;;;;;;;15.07;10.00;;;;;;;;;;5094192;28;20457;-70
2021/12/05 16:03:54;;;;;;;14.53;11.00;;;;;;;;;;5093856;28;20497;-71
2021/12/05 16:06:23;;;;;;;15.30;10.40;;;;;;;;;;5093992;28;20458;-70
2021/12/05 16:08:51;;;;;;;22.10;11.37;;;;;;;;;;5093682;28;20447;-70
2021/12/05 16:11:19;;;;;;;16.50;10.70;;;;;;;;;;5093687;28;20451;-70
2021/12/05 16:13:47;;;;;;;20.00;11.30;;;;;;;;;;5093841;28;20454;-71
2021/12/05 16:16:15;;;;;;;13.10;9.20;;;;;;;;;;5094101;28;20459;-71
2021/12/05 16:18:45;;;;;;;16.33;8.33;;;;;;;;;;5093791;28;20515;-70
2021/12/05 16:21:16;;;;;;;19.70;8.33;;;;;;;;;;5094120;28;20811;-71
2021/12/05 16:23:43;;;;;;;11.03;8.33;;;;;;;;;;5093895;28;20454;-70
2021/12/05 16:26:13;;;;;;;13.63;8.93;;;;;;;;;;5093870;28;20454;-70
2021/12/05 16:28:42;;;;;;;12.63;9.70;;;;;;;;;;5093706;28;20924;-70
2021/12/05 16:31:11;;;;;;;17.47;9.53;;;;;;;;;;5093781;28;20509;-70
2021/12/05 16:33:39;;;;;;;14.33;9.87;;;;;;;;;;5093918;28;20454;-70
2021/12/05 16:36:07;;;;;;;14.27;10.70;;;;;;;;;;5094288;28;20450;-70
2021/12/05 16:38:37;;;;;;;10.70;8.43;;;;;;;;;;5094003;28;20959;-70
2021/12/05 16:41:06;;;;;;;11.43;7.70;;;;;;;;;;5094035;28;20986;-70
2021/12/05 16:43:35;;;;;;;12.50;9.00;;;;;;;;;;5094048;28;20458;-70
2021/12/05 16:46:07;;;;;;;17.30;11.33;;;;;;;;;;5094301;28;20916;-70
2021/12/05 16:48:35;;;;;;;14.77;11.13;;;;;;;;;;5093957;28;20450;-70
2021/12/05 16:51:15;;;;;;;29.97;18.30;;;;;;;;;;5093349;28;20459;-70
2021/12/05 16:53:46;;;;;;;35.80;21.33;;;;;;;;;;5094186;28;20458;-70
2021/12/05 16:56:14;;;;;;;15.60;10.17;;;;;;;;;;5094209;28;20461;-70
2021/12/05 16:58:43;;;;;;;33.70;18.13;;;;;;;;;;5094649;28;20469;-70
2021/12/05 17:01:15;;;;;;;62.53;30.37;;;;;;;;;;5098056;28;20489;-70
2021/12/05 17:03:44;;;;;;;111.87;51.97;;;;;;;;;;5097975;28;20962;-70
2021/12/05 17:06:11;;;;;;;184.30;83.50;;;;;;;;;;5098048;28;20446;-70
2021/12/05 17:08:44;;;;;;;309.77;132.90;;;;;;;;;;5097494;28;20478;-70
2021/12/05 17:11:12;;;;;;;109.87;46.90;;;;;;;;;;5097164;28;20450;-70
2021/12/05 17:13:40;;;;;;;23.13;13.80;;;;;;;;;;5097677;28;20452;-70
2021/12/05 17:16:09;;;;;;;22.63;13.37;;;;;;;;;;5097655;28;20458;-70
2021/12/05 17:18:38;;;;;;;54.63;28.23;;;;;;;;;;5097718;28;20454;-70
2021/12/05 17:21:07;;;;;;;65.23;34.70;;;;;;;;;;5097712;28;20958;-70
2021/12/05 17:23:35;;;;;;;59.40;35.80;;;;;;;;;;5097556;28;20453;-70
2021/12/05 17:26:12;;;;;;;22.33;16.50;;;;;;;;;;5096953;28;20450;-70
2021/12/05 17:28:41;;;;;;;21.27;11.10;;;;;;;;;;5097016;28;20449;-70
2021/12/05 17:31:09;;;;;;;19.13;11.73;;;;;;;;;;5096934;28;20481;-70
2021/12/05 17:33:39;;;;;;;18.83;12.20;;;;;;;;;;5097018;28;20458;-71
2021/12/05 17:36:18;;;;;;;16.10;11.20;;;;;;;;;;5096871;28;20454;-70
2021/12/05 17:38:45;;;;;;;22.10;12.17;;;;;;;;;;5096747;28;20438;-70
2021/12/05 17:41:13;;;;;;;19.17;13.03;;;;;;;;;;5096800;28;20458;-70
2021/12/05 17:43:41;;;;;;;17.00;12.87;;;;;;;;;;5097655;28;20435;-70
2021/12/05 17:46:08;;;;;;;17.87;12.13;;;;;;;;;;5096709;28;20802;-70
2021/12/05 17:48:36;;;;;;;18.97;11.37;;;;;;;;;;5096466;28;20450;-70
2021/12/05 17:51:05;;;;;;;18.87;13.20;;;;;;;;;;5097522;28;20459;-70
2021/12/05 17:53:34;;;;;;;26.60;15.33;;;;;;;;;;5097676;28;20498;-70
2021/12/05 17:56:08;;;;;;;16.73;10.87;;;;;;;;;;5097248;28;20551;-70
2021/12/05 17:58:52;;;;;;;21.20;12.77;;;;;;;;;;5097563;28;20545;-70
2021/12/05 18:04:05;;;;;;;25.30;17.77;;;;;;;;;;5097019;28;20923;-70
2021/12/05 18:06:35;;;;;;;21.73;14.70;;;;;;;;;;5096711;28;20446;-70
2021/12/05 18:09:03;;;;;;;22.17;12.73;;;;;;;;;;5097056;28;20459;-70
2021/12/05 18:11:32;;;;;;;22.90;14.30;;;;;;;;;;5097482;28;20451;-70
2021/12/05 18:14:00;;;;;;;20.80;13.10;;;;;;;;;;5097352;28;20815;-70
2021/12/05 18:16:27;;;;;;;19.30;13.27;;;;;;;;;;5097499;28;20457;-70
2021/12/05 18:18:56;;;;;;;21.20;13.57;;;;;;;;;;5097192;28;20450;-70
2021/12/05 18:21:25;;;;;;;31.50;15.57;;;;;;;;;;5097035;28;20943;-70
2021/12/05 18:23:53;;;;;;;22.53;13.57;;;;;;;;;;5096006;28;20579;-70
2021/12/05 18:26:20;;;;;;;21.50;14.27;;;;;;;;;;5095974;28;20493;-70
2021/12/05 18:28:49;;;;;;;19.80;14.10;;;;;;;;;;5096600;28;20451;-70
2021/12/05 18:31:19;;;;;;;23.17;15.03;;;;;;;;;;5097031;28;20443;-70
2021/12/05 18:33:47;;;;;;;24.47;15.27;;;;;;;;;;5096564;28;20459;-70
2021/12/05 18:36:14;;;;;;;27.30;14.70;;;;;;;;;;5096105;28;20454;-70
2021/12/05 18:38:42;;;;;;;22.53;14.57;;;;;;;;;;5095816;28;20443;-70
2021/12/05 18:41:11;;;;;;;20.10;14.17;;;;;;;;;;5095645;28;20506;-70
2021/12/05 18:43:39;;;;;;;17.47;14.10;;;;;;;;;;5095319;28;20944;-70
2021/12/05 18:46:07;;;;;;;18.47;11.63;;;;;;;;;;5095391;28;20490;-70
2021/12/05 18:48:36;;;;;;;16.77;11.30;;;;;;;;;;5095049;28;20807;-70
2021/12/05 18:51:04;;;;;;;18.73;12.87;;;;;;;;;;5094969;28;20879;-70
2021/12/05 18:53:31;;;;;;;23.47;13.10;;;;;;;;;;5095296;28;20859;-70
2021/12/05 18:55:59;;;;;;;17.50;11.50;;;;;;;;;;5095235;28;20454;-70
2021/12/05 18:58:26;;;;;;;18.07;11.40;;;;;;;;;;5094836;28;20450;-70
2021/12/05 19:06:36;;;;;;;22.77;13.53;;;;;;;;;;5095166;28;20945;-70